Time;durP1;ratioP1;P1;durP2;ratioP2;P2;SDS_P1;SDS_P2;PMS_P1;PMS_P2;Temp;Humidity;BMP_temperature;BMP_pressure;BME280_temperature;BME280_humidity;BME280_pressure;Samples;Min_cycle;Max_cycle;Signal;HPM_P1;HPM_P2
2021/11/03 00:02:16;;;;;;;11.57;7.20;;;;;;;6.34;nan;99522.69;4926681;28;20935;-84
2021/11/03 00:04:43;;;;;;;12.10;7.37;;;;;;;6.31;nan;99508.78;4930242;28;20053;-84
2021/11/03 00:07:14;;;;;;;12.40;7.30;;;;;;;6.25;nan;99527.28;4925686;28;20042;-85
2021/11/03 00:09:56;;;;;;;;;;;;;;;6.09;nan;99522.34;4949664;28;20053;-84
2021/11/03 00:12:25;;;;;;;11.17;6.33;;;;;;;6.01;nan;99523.38;4921916;28;20319;-84
2021/11/03 00:14:54;;;;;;;14.60;7.43;;;;;;;5.99;nan;99528.66;4937596;28;20053;-84
2021/11/03 00:17:24;;;;;;;11.60;6.67;;;;;;;5.90;nan;99523.56;4941468;28;20041;-84
2021/11/03 00:19:51;;;;;;;11.07;6.87;;;;;;;5.81;nan;99523.75;4923293;28;20419;-84
2021/11/03 00:22:19;;;;;;;11.70;6.77;;;;;;;5.74;nan;99530.00;4931745;28;20543;-83
2021/11/03 00:24:46;;;;;;;13.77;7.60;;;;;;;5.69;nan;99526.59;4924671;28;20126;-81
2021/11/03 00:27:15;;;;;;;11.07;6.60;;;;;;;5.62;nan;99531.94;4932334;29;20122;-81
2021/11/03 00:29:42;;;;;;;12.23;7.30;;;;;;;5.56;nan;99531.22;4963013;28;20090;-81
2021/11/03 00:32:10;;;;;;;12.07;7.00;;;;;;;5.61;nan;99534.59;4963284;28;20121;-81
2021/11/03 00:34:37;;;;;;;9.97;6.10;;;;;;;5.54;nan;99533.84;4944823;28;20501;-80
2021/11/03 00:37:04;;;;;;;14.73;6.57;;;;;;;5.41;nan;99539.34;4956258;28;20087;-81
2021/11/03 00:39:31;;;;;;;16.33;7.47;;;;;;;5.41;nan;99544.56;4949633;28;20114;-80
2021/11/03 00:41:58;;;;;;;10.10;6.13;;;;;;;5.39;nan;99539.38;4951599;28;20114;-81
2021/11/03 00:44:25;;;;;;;10.43;6.63;;;;;;;5.27;nan;99539.56;4949092;28;20118;-81
2021/11/03 00:46:52;;;;;;;11.53;6.80;;;;;;;5.20;nan;99524.84;4956807;28;20123;-82
2021/11/03 00:49:19;;;;;;;11.73;7.13;;;;;;;5.22;nan;99531.81;4961198;28;20631;-80
2021/11/03 00:51:46;;;;;;;10.97;6.63;;;;;;;5.22;nan;99530.94;4965876;28;20083;-82
2021/11/03 00:54:13;;;;;;;13.20;6.93;;;;;;;5.19;nan;99525.75;4929821;28;20572;-80
2021/11/03 00:56:40;;;;;;;12.40;6.80;;;;;;;5.16;nan;99528.41;4936534;29;20182;-81
2021/11/03 00:59:10;;;;;;;12.33;6.33;;;;;;;5.09;nan;99533.75;4949028;28;20094;-80
2021/11/03 01:01:37;;;;;;;10.90;6.63;;;;;;;5.15;nan;99531.94;4966326;28;20122;-81
2021/11/03 01:04:04;;;;;;;13.97;8.03;;;;;;;4.97;nan;99528.72;4960196;28;20118;-81
2021/11/03 01:06:31;;;;;;;13.53;7.63;;;;;;;5.02;nan;99526.00;4965806;28;20142;-81
2021/11/03 01:08:58;;;;;;;13.77;7.67;;;;;;;5.01;nan;99532.13;4961687;28;20476;-81
2021/11/03 01:11:33;;;;;;;12.60;7.30;;;;;;;4.96;nan;99542.69;4936438;28;20125;-81
2021/11/03 01:14:03;;;;;;;13.43;6.83;;;;;;;4.92;nan;99533.16;4932871;28;20106;-81
2021/11/03 01:16:30;;;;;;;11.13;6.33;;;;;;;4.82;nan;99534.19;4948551;28;20119;-80
2021/11/03 01:19:01;;;;;;;11.50;7.10;;;;;;;4.84;nan;99532.41;4946650;28;20102;-83
2021/11/03 01:21:28;;;;;;;13.40;7.40;;;;;;;4.82;nan;99539.41;4956702;28;21249;-81
2021/11/03 01:23:55;;;;;;;11.70;7.20;;;;;;;4.86;nan;99541.09;4947207;28;20095;-82
2021/11/03 01:26:22;;;;;;;11.57;7.30;;;;;;;4.91;nan;99536.66;4958892;28;20381;-82
2021/11/03 01:28:49;;;;;;;10.93;6.77;;;;;;;4.91;nan;99541.03;4925657;28;20572;-82
2021/11/03 01:31:16;;;;;;;13.43;7.40;;;;;;;5.03;nan;99533.84;4944453;28;20095;-82
2021/11/03 01:33:43;;;;;;;13.93;8.23;;;;;;;5.11;nan;99538.09;4949254;28;21011;-83
2021/11/03 01:36:11;;;;;;;13.53;8.33;;;;;;;5.11;nan;99533.72;4935536;29;20103;-81
2021/11/03 01:38:38;;;;;;;12.93;7.60;;;;;;;5.11;nan;99530.22;4937730;29;20473;-83
2021/11/03 01:41:05;;;;;;;16.30;7.17;;;;;;;5.09;nan;99525.03;4946034;28;20114;-81
2021/11/03 01:43:48;;;;;;;12.57;7.10;;;;;;;5.06;nan;99532.94;4935289;28;20137;-81
2021/11/03 01:46:27;;;;;;;12.50;7.03;;;;;;;5.17;nan;99532.75;4935718;28;20137;-80
2021/11/03 01:49:21;;;;;;;13.90;7.73;;;;;;;5.15;nan;99534.53;4952772;28;20094;-82
2021/11/03 01:51:56;;;;;;;;;;;;;;;5.15;nan;99531.94;4962225;28;20104;-82
2021/11/03 01:54:32;;;;;;;10.82;6.75;;;;;;;5.14;nan;99533.69;4939665;28;19993;-80
2021/11/03 01:56:59;;;;;;;12.77;7.83;;;;;;;5.20;nan;99528.31;4935261;29;21959;-82
2021/11/03 01:59:32;;;;;;;13.27;8.33;;;;;;;5.25;nan;99517.78;4919358;28;20106;-82
2021/11/03 02:02:00;;;;;;;11.77;7.50;;;;;;;5.27;nan;99513.38;4945458;28;20118;-81
2021/11/03 02:04:30;;;;;;;13.27;7.00;;;;;;;5.16;nan;99524.03;4946506;28;20137;-80
2021/11/03 02:07:00;;;;;;;12.37;7.73;;;;;;;5.15;nan;99519.69;4957794;28;20127;-82
2021/11/03 02:09:27;;;;;;;11.93;6.93;;;;;;;5.19;nan;99525.75;4944034;29;20095;-82
2021/11/03 02:11:54;;;;;;;10.83;6.93;;;;;;;5.21;nan;99524.84;4933137;28;20127;-85
2021/11/03 02:14:21;;;;;;;12.87;8.03;;;;;;;5.19;nan;99515.25;4925264;28;20042;-85
2021/11/03 02:16:53;;;;;;;11.27;7.80;;;;;;;5.24;nan;99521.31;4927882;29;20035;-85
2021/11/03 02:19:26;;;;;;;12.10;7.30;;;;;;;5.20;nan;99519.59;4946549;28;20050;-85
2021/11/03 02:22:08;;;;;;;11.13;7.70;;;;;;;5.22;nan;99523.94;4951013;28;20035;-85
2021/11/03 02:24:40;;;;;;;11.30;7.27;;;;;;;5.24;nan;99516.94;4938781;28;20382;-85
2021/11/03 02:27:07;;;;;;;11.80;7.57;;;;;;;5.22;nan;99523.94;4954564;28;20046;-85
2021/11/03 02:29:34;;;;;;;12.47;6.77;;;;;;;5.28;nan;99518.59;4937968;28;20408;-86
2021/11/03 02:32:20;;;;;;;11.47;7.47;;;;;;;5.34;nan;99515.88;4953705;28;20392;-85
2021/11/03 02:34:48;;;;;;;13.37;7.43;;;;;;;5.27;nan;99511.63;4936508;28;20035;-86
2021/11/03 02:37:27;;;;;;;13.77;7.77;;;;;;;5.26;nan;99514.28;4929988;28;20435;-85
2021/11/03 02:39:58;;;;;;;14.80;7.23;;;;;;;5.24;nan;99513.44;4938042;28;20051;-85
2021/11/03 02:42:28;;;;;;;10.67;6.93;;;;;;;5.17;nan;99509.19;4955828;28;20061;-85
2021/11/03 02:44:56;;;;;;;10.23;6.43;;;;;;;5.13;nan;99517.97;4938898;28;20489;-86
2021/11/03 02:47:23;;;;;;;11.97;6.70;;;;;;;5.10;nan;99518.91;4916587;28;20419;-86
2021/11/03 02:49:50;;;;;;;9.83;6.33;;;;;;;5.07;nan;99518.97;4926987;28;20053;-84
2021/11/03 02:52:21;;;;;;;11.40;6.90;;;;;;;5.06;nan;99522.47;4926045;28;20049;-83
2021/11/03 02:54:48;;;;;;;12.57;7.13;;;;;;;5.05;nan;99521.63;4936028;28;20488;-84
2021/11/03 02:57:16;;;;;;;13.33;6.50;;;;;;;5.04;nan;99525.13;4923384;29;20404;-84
2021/11/03 02:59:44;;;;;;;10.70;7.57;;;;;;;5.00;nan;99517.31;4925846;28;20039;-84
2021/11/03 03:02:12;;;;;;;9.97;6.70;;;;;;;5.04;nan;99521.59;5007309;23;20043;-81
2021/11/03 03:04:42;;;;;;;11.07;6.80;;;;;;;4.98;nan;99521.72;4954914;28;20142;-81
2021/11/03 03:07:10;;;;;;;10.37;6.70;;;;;;;4.83;nan;99520.22;4934308;28;20130;-81
2021/11/03 03:09:38;;;;;;;10.20;6.73;;;;;;;4.73;nan;99531.72;4914541;28;20121;-81
2021/11/03 03:12:07;;;;;;;10.90;6.43;;;;;;;4.69;nan;99532.63;4956810;29;20114;-81
2021/11/03 03:14:36;;;;;;;10.77;6.67;;;;;;;4.60;nan;99535.38;4907851;28;20099;-80
2021/11/03 03:17:05;;;;;;;10.87;6.80;;;;;;;4.52;nan;99533.72;4943733;29;20115;-80
2021/11/03 03:19:32;;;;;;;11.77;7.00;;;;;;;4.49;nan;99538.16;4922058;29;20095;-80
2021/11/03 03:22:03;;;;;;;10.23;7.03;;;;;;;4.40;nan;99535.66;4917563;29;20049;-83
2021/11/03 03:24:30;;;;;;;10.00;6.63;;;;;;;4.37;nan;99546.16;4918827;29;20057;-83
2021/11/03 03:26:57;;;;;;;12.40;6.87;;;;;;;4.33;nan;99540.09;4921195;29;20545;-83
2021/11/03 03:29:24;;;;;;;11.97;7.10;;;;;;;4.27;nan;99537.56;4919800;29;20046;-82
2021/11/03 03:31:51;;;;;;;10.37;6.10;;;;;;;4.26;nan;99541.06;4920804;29;20124;-82
2021/11/03 03:34:23;;;;;;;11.10;6.47;;;;;;;4.20;nan;99547.25;4914073;29;20054;-82
2021/11/03 03:36:51;;;;;;;12.20;7.10;;;;;;;4.20;nan;99542.03;4896623;29;20058;-83
2021/11/03 03:39:20;;;;;;;11.83;7.40;;;;;;;4.12;nan;99529.91;4910877;29;20382;-83
2021/11/03 03:41:52;;;;;;;11.93;6.93;;;;;;;4.07;nan;99539.56;4901767;29;20047;-83
2021/11/03 03:44:20;;;;;;;9.87;6.37;;;;;;;4.01;nan;99537.03;4887563;29;20053;-83
2021/11/03 03:46:47;;;;;;;10.37;6.00;;;;;;;3.94;nan;99542.31;4911279;29;20039;-83
2021/11/03 03:49:14;;;;;;;12.10;7.17;;;;;;;3.98;nan;99544.91;4919892;29;20046;-82
2021/11/03 03:51:41;;;;;;;12.67;6.70;;;;;;;3.97;nan;99546.66;4905314;29;20051;-83
2021/11/03 03:54:08;;;;;;;10.63;7.10;;;;;;;3.95;nan;99541.47;4904139;29;20051;-82
2021/11/03 03:56:35;;;;;;;9.20;6.63;;;;;;;3.99;nan;99546.63;4905288;29;20051;-82
2021/11/03 03:59:02;;;;;;;13.60;8.23;;;;;;;4.00;nan;99546.63;4934987;29;20039;-82
2021/11/03 04:01:29;;;;;;;12.30;7.90;;;;;;;4.12;nan;99542.97;4934928;29;20040;-83
2021/11/03 04:03:57;;;;;;;12.57;7.47;;;;;;;4.03;nan;99538.72;4933639;29;20049;-84
2021/11/03 04:06:24;;;;;;;13.77;8.13;;;;;;;4.03;nan;99538.72;4938397;29;20054;-82
2021/11/03 04:08:51;;;;;;;15.27;8.70;;;;;;;4.01;nan;99537.88;4918221;29;20043;-83
2021/11/03 04:11:18;;;;;;;13.60;7.63;;;;;;;3.98;nan;99537.94;4917933;29;20039;-82
2021/11/03 04:13:45;;;;;;;16.07;9.70;;;;;;;4.00;nan;99546.63;4922612;29;20042;-82
2021/11/03 04:16:12;;;;;;;14.60;8.93;;;;;;;4.01;nan;99539.63;4907801;29;20058;-82
2021/11/03 04:18:39;;;;;;;14.00;8.40;;;;;;;4.02;nan;99552.69;4922345;29;20045;-83
2021/11/03 04:21:06;;;;;;;14.13;8.50;;;;;;;4.02;nan;99544.84;4907217;29;20047;-82
2021/11/03 04:23:34;;;;;;;13.43;8.10;;;;;;;4.03;nan;99553.53;4906119;29;20061;-82
2021/11/03 04:26:02;;;;;;;13.57;8.23;;;;;;;4.05;nan;99549.19;4907356;29;20051;-82
2021/11/03 04:28:29;;;;;;;15.00;8.60;;;;;;;4.03;nan;99545.72;4921769;29;20051;-82
2021/11/03 04:30:56;;;;;;;14.17;8.50;;;;;;;4.05;nan;99552.66;4922833;29;20035;-82
2021/11/03 04:33:23;;;;;;;13.13;8.00;;;;;;;4.01;nan;99555.31;4937325;29;20047;-82
2021/11/03 04:35:50;;;;;;;12.07;7.57;;;;;;;4.02;nan;99562.28;4907857;29;20055;-83
2021/11/03 04:38:17;;;;;;;13.30;8.23;;;;;;;4.00;nan;99564.91;4903614;29;20047;-82
2021/11/03 04:40:44;;;;;;;13.37;8.23;;;;;;;3.97;nan;99570.19;4922912;29;20045;-81
2021/11/03 04:43:11;;;;;;;11.77;7.80;;;;;;;4.02;nan;99575.34;4920419;29;20044;-83
2021/11/03 04:45:38;;;;;;;13.43;7.80;;;;;;;3.99;nan;99591.94;4905316;29;20050;-83
2021/11/03 04:48:05;;;;;;;14.27;8.73;;;;;;;4.05;nan;99591.00;4905946;28;20091;-83
2021/11/03 04:50:34;;;;;;;12.07;7.50;;;;;;;4.02;nan;99593.63;4903999;29;20040;-83
2021/11/03 04:53:02;;;;;;;11.77;7.67;;;;;;;4.02;nan;99593.63;4903072;29;20058;-83
2021/11/03 04:55:29;;;;;;;10.60;7.60;;;;;;;3.93;nan;99595.47;4888218;29;20050;-82
2021/11/03 04:57:56;;;;;;;12.37;7.43;;;;;;;4.01;nan;99597.13;4902785;29;20074;-81
2021/11/03 05:00:30;;;;;;;11.80;7.27;;;;;;;3.92;nan;99603.31;4905040;29;20039;-81
2021/11/03 05:02:58;;;;;;;12.80;7.23;;;;;;;3.90;nan;99602.47;4935580;29;20039;-81
2021/11/03 05:05:26;;;;;;;11.50;7.50;;;;;;;3.83;nan;99609.50;4905215;29;20043;-82
2021/11/03 05:07:54;;;;;;;12.27;7.63;;;;;;;3.85;nan;99602.50;4918904;29;20402;-82
2021/11/03 05:10:22;;;;;;;11.80;7.50;;;;;;;3.81;nan;99598.22;4899777;29;20050;-81
2021/11/03 05:12:49;;;;;;;11.43;7.00;;;;;;;3.74;nan;99603.50;4917695;29;20516;-81
2021/11/03 05:15:17;;;;;;;10.50;6.40;;;;;;;3.74;nan;99598.28;4920464;29;20044;-81
2021/11/03 05:17:44;;;;;;;12.53;8.53;;;;;;;3.77;nan;99593.03;4902303;29;20050;-81
2021/11/03 05:20:11;;;;;;;11.37;7.20;;;;;;;3.73;nan;99597.44;4901200;29;20047;-81
2021/11/03 05:22:38;;;;;;;13.50;8.07;;;;;;;3.70;nan;99591.34;4922974;29;20035;-81
2021/11/03 05:25:06;;;;;;;11.43;7.57;;;;;;;3.68;nan;99593.97;4923767;29;20061;-80
2021/11/03 05:27:33;;;;;;;11.97;7.20;;;;;;;3.65;nan;99594.88;4932829;29;20794;-80
2021/11/03 05:29:59;;;;;;;12.13;7.17;;;;;;;3.66;nan;99600.97;4913538;28;20127;-81
2021/11/03 05:32:27;;;;;;;12.90;7.90;;;;;;;3.62;nan;99594.94;4953836;28;20091;-81
2021/11/03 05:34:54;;;;;;;11.50;7.80;;;;;;;3.61;nan;99606.22;4921977;29;20119;-82
2021/11/03 05:37:21;;;;;;;11.60;7.03;;;;;;;3.60;nan;99596.66;4911248;29;20103;-81
2021/11/03 05:39:52;;;;;;;13.00;7.60;;;;;;;3.58;nan;99601.03;4913099;29;20127;-81
2021/11/03 05:42:19;;;;;;;12.43;7.63;;;;;;;3.62;nan;99602.75;4946672;23;20125;-84
2021/11/03 05:44:46;;;;;;;12.00;8.10;;;;;;;3.59;nan;99605.38;4920769;29;20050;-83
2021/11/03 05:47:22;;;;;;;13.23;8.07;;;;;;;3.56;nan;99608.03;4924237;28;20039;-85
2021/11/03 05:49:50;;;;;;;12.97;7.53;;;;;;;3.65;nan;99594.88;4932984;29;20637;-81
2021/11/03 05:52:17;;;;;;;11.47;7.73;;;;;;;3.60;nan;99593.19;4939209;28;20043;-83
2021/11/03 05:54:45;;;;;;;12.33;7.70;;;;;;;3.56;nan;99599.34;4941648;28;20035;-83
2021/11/03 05:57:28;;;;;;;14.50;8.47;;;;;;;3.57;nan;99607.16;4926675;28;20411;-83
2021/11/03 05:59:56;;;;;;;12.50;6.93;;;;;;;3.58;nan;99608.88;4957710;28;20053;-83
2021/11/03 06:02:24;;;;;;;14.77;8.50;;;;;;;3.63;nan;99617.56;4942128;28;20045;-81
2021/11/03 06:04:51;;;;;;;12.33;7.20;;;;;;;3.57;nan;99616.72;4956978;28;20043;-81
2021/11/03 06:07:21;;;;;;;14.73;7.97;;;;;;;3.58;nan;99621.06;4942302;28;20035;-85
2021/11/03 06:09:52;;;;;;;12.60;8.43;;;;;;;3.60;nan;99612.34;4941723;29;20455;-82
2021/11/03 06:12:19;;;;;;;14.10;7.30;;;;;;;3.60;nan;99614.94;4922775;29;20043;-82
2021/11/03 06:14:46;;;;;;;13.13;8.27;;;;;;;3.62;nan;99614.97;4921723;29;20069;-82
2021/11/03 06:17:13;;;;;;;13.27;7.80;;;;;;;3.62;nan;99607.13;4919502;29;20046;-84
2021/11/03 06:19:40;;;;;;;12.80;8.20;;;;;;;3.59;nan;99609.75;4918158;29;20048;-84
2021/11/03 06:22:07;;;;;;;13.00;8.53;;;;;;;3.69;nan;99608.78;4920951;28;20400;-81
2021/11/03 06:24:35;;;;;;;13.80;7.87;;;;;;;3.64;nan;99613.19;4936205;29;20047;-81
2021/11/03 06:27:03;;;;;;;14.80;8.80;;;;;;;3.59;nan;99620.19;4921635;29;20429;-85
2021/11/03 06:29:30;;;;;;;12.10;7.97;;;;;;;3.58;nan;99615.84;4919828;29;20500;-81
2021/11/03 06:31:57;;;;;;;12.93;7.93;;;;;;;3.61;nan;99618.41;4905844;29;20053;-83
2021/11/03 06:34:24;;;;;;;13.77;8.27;;;;;;;3.66;nan;99621.88;4935238;29;20043;-81
2021/11/03 06:36:50;;;;;;;13.10;7.40;;;;;;;3.61;nan;99626.25;4921284;29;20081;-81
2021/11/03 06:39:18;;;;;;;12.70;8.20;;;;;;;3.65;nan;99633.19;4904448;29;20035;-81
2021/11/03 06:41:46;;;;;;;15.50;9.20;;;;;;;3.63;nan;99638.44;4921478;28;20039;-83
2021/11/03 06:44:13;;;;;;;12.90;7.93;;;;;;;3.72;nan;99640.09;4935974;29;20451;-85
2021/11/03 06:46:40;;;;;;;13.23;8.00;;;;;;;3.71;nan;99632.28;4921353;29;20496;-81
2021/11/03 06:49:07;;;;;;;14.57;9.17;;;;;;;3.79;nan;99640.94;4919914;29;20467;-86
2021/11/03 06:51:34;;;;;;;13.27;8.87;;;;;;;3.79;nan;99638.31;4921417;29;20046;-82
2021/11/03 06:54:01;;;;;;;14.47;8.20;;;;;;;3.74;nan;99640.94;4928446;28;20518;-85
2021/11/03 06:56:28;;;;;;;14.70;9.27;;;;;;;3.76;nan;99644.41;4954440;28;20043;-82
2021/11/03 06:58:55;;;;;;;13.27;8.70;;;;;;;3.78;nan;99641.78;4936093;29;20043;-81
2021/11/03 07:01:22;;;;;;;14.60;8.63;;;;;;;3.75;nan;99644.44;4933801;29;20048;-83
2021/11/03 07:03:51;;;;;;;13.13;7.87;;;;;;;3.79;nan;99647.00;4938338;28;20054;-81
2021/11/03 07:06:18;;;;;;;15.50;8.67;;;;;;;3.81;nan;99658.31;4922880;28;20051;-81
2021/11/03 07:08:47;;;;;;;12.73;7.87;;;;;;;3.81;nan;99660.06;4953082;28;20045;-83
2021/11/03 07:11:14;;;;;;;14.47;8.37;;;;;;;3.81;nan;99671.38;4956053;28;20041;-85
2021/11/03 07:13:41;;;;;;;17.23;10.10;;;;;;;3.89;nan;99682.63;4938811;28;20047;-81
2021/11/03 07:16:08;;;;;;;13.93;8.57;;;;;;;3.92;nan;99677.34;4941030;28;20443;-84
2021/11/03 07:18:35;;;;;;;13.77;8.77;;;;;;;4.04;nan;99685.97;4939050;28;20045;-81
2021/11/03 07:21:02;;;;;;;14.80;9.37;;;;;;;3.99;nan;99682.53;4937691;28;20046;-86
2021/11/03 07:23:29;;;;;;;15.93;10.70;;;;;;;4.07;nan;99675.47;4919197;29;20057;-81
2021/11/03 07:25:57;;;;;;;14.33;8.67;;;;;;;4.02;nan;99678.13;4920714;29;20050;-83
2021/11/03 07:28:24;;;;;;;13.83;9.00;;;;;;;4.08;nan;99682.44;4934926;29;20411;-82
2021/11/03 07:30:52;;;;;;;14.30;9.17;;;;;;;4.07;nan;99691.16;4917803;29;20054;-81
2021/11/03 07:33:19;;;;;;;13.70;8.63;;;;;;;4.10;nan;99698.97;4901272;29;20054;-83
2021/11/03 07:35:46;;;;;;;15.87;10.07;;;;;;;4.10;nan;99701.56;4917748;29;20044;-81
2021/11/03 07:38:14;;;;;;;13.03;9.07;;;;;;;4.15;nan;99698.06;4917920;28;20501;-82
2021/11/03 07:40:47;;;;;;;15.10;8.83;;;;;;;4.19;nan;99704.97;4903721;29;20046;-83
2021/11/03 07:43:15;;;;;;;16.60;9.77;;;;;;;4.28;nan;99700.53;4923916;28;20039;-82
2021/11/03 07:45:44;;;;;;;17.97;10.83;;;;;;;4.37;nan;99705.66;4924997;29;20047;-81
2021/11/03 07:48:12;;;;;;;16.20;9.70;;;;;;;4.40;nan;99703.91;4940371;28;20048;-84
2021/11/03 07:50:45;;;;;;;14.33;9.53;;;;;;;4.45;nan;99709.91;4924752;29;20042;-86
2021/11/03 07:53:14;;;;;;;18.60;10.10;;;;;;;4.45;nan;99715.16;4924166;28;20587;-81
2021/11/03 07:55:49;;;;;;;16.37;10.03;;;;;;;4.53;nan;99710.69;4924819;29;20039;-85
2021/11/03 07:58:19;;;;;;;16.40;10.10;;;;;;;4.54;nan;99719.44;4939797;28;20047;-81
2021/11/03 08:00:48;;;;;;;17.93;10.57;;;;;;;4.60;nan;99714.13;4925658;29;20037;-80
2021/11/03 08:03:16;;;;;;;17.47;11.47;;;;;;;4.64;nan;99715.84;4924858;29;20053;-84
2021/11/03 08:05:44;;;;;;;20.00;10.87;;;;;;;4.69;nan;99728.84;4925218;29;20047;-84
2021/11/03 08:08:13;;;;;;;18.33;11.17;;;;;;;4.73;nan;99722.72;4924281;28;20050;-82
2021/11/03 08:10:44;;;;;;;16.67;10.67;;;;;;;4.76;nan;99720.03;4939566;29;20043;-84
2021/11/03 08:13:18;;;;;;;18.37;10.83;;;;;;;4.78;nan;99723.50;4925725;28;20039;-81
2021/11/03 08:15:52;;;;;;;18.50;11.88;;;;;;;4.87;nan;99709.44;4942560;29;20043;-81
2021/11/03 08:18:26;;;;;;;18.15;10.90;;;;;;;4.92;nan;99710.25;4924275;29;20050;-83
2021/11/03 08:20:53;;;;;;;17.88;10.57;;;;;;;4.97;nan;99719.78;4925528;29;20039;-81
2021/11/03 08:23:21;;;;;;;19.20;11.90;;;;;;;5.01;nan;99718.00;4941274;28;20097;-84
2021/11/03 08:25:48;;;;;;;20.70;12.30;;;;;;;5.05;nan;99717.94;4913793;29;20062;-87
2021/11/03 08:28:15;;;;;;;22.60;13.07;;;;;;;5.14;nan;99716.09;4924794;28;20126;-81
2021/11/03 08:30:44;;;;;;;20.10;12.77;;;;;;;5.13;nan;99722.19;4941262;29;20493;-80
2021/11/03 08:33:14;;;;;;;18.10;11.53;;;;;;;5.16;nan;99724.78;4925967;28;20043;-85
2021/11/03 08:35:44;;;;;;;18.97;11.53;;;;;;;5.20;nan;99726.47;4941416;29;20069;-80
2021/11/03 08:38:16;;;;;;;21.63;13.90;;;;;;;5.30;nan;99728.09;4925308;29;20046;-81
2021/11/03 08:40:44;;;;;;;21.03;13.33;;;;;;;5.29;nan;99728.94;4942644;29;20058;-81
2021/11/03 08:43:13;;;;;;;24.00;13.63;;;;;;;5.38;nan;99728.81;4909228;29;20527;-82
2021/11/03 08:45:40;;;;;;;25.60;16.70;;;;;;;5.16;nan;99732.63;4922730;29;20043;-81
2021/11/03 08:48:07;;;;;;;24.90;14.83;;;;;;;5.25;nan;99740.38;4923805;29;20520;-83
2021/11/03 08:50:37;;;;;;;26.00;15.97;;;;;;;5.31;nan;99746.41;4923213;29;20035;-81
2021/11/03 08:53:05;;;;;;;22.70;12.83;;;;;;;5.36;nan;99751.56;4938347;29;20039;-81
2021/11/03 08:55:32;;;;;;;22.23;12.10;;;;;;;5.39;nan;99748.91;4922565;29;20051;-81
2021/11/03 08:58:02;;;;;;;21.87;12.47;;;;;;;5.35;nan;99753.31;4923960;29;20047;-84
2021/11/03 09:00:32;;;;;;;21.97;13.07;;;;;;;5.48;nan;99753.16;4922163;29;20043;-81
2021/11/03 09:02:59;;;;;;;24.97;15.97;;;;;;;5.58;nan;99753.00;4924148;29;20045;-81
2021/11/03 09:05:28;;;;;;;27.43;15.13;;;;;;;5.62;nan;99752.03;4922034;29;20051;-81
2021/11/03 09:07:57;;;;;;;24.87;14.77;;;;;;;5.64;nan;99750.28;4919842;29;20035;-83
2021/11/03 09:10:25;;;;;;;23.07;14.13;;;;;;;5.75;nan;99751.88;4923777;29;20042;-83
2021/11/03 09:12:52;;;;;;;28.47;15.53;;;;;;;5.81;nan;99749.16;4918088;29;20043;-83
2021/11/03 09:15:20;;;;;;;23.97;13.57;;;;;;;5.97;nan;99750.69;4901088;29;20043;-83
2021/11/03 09:17:51;;;;;;;26.70;17.73;;;;;;;5.97;nan;99750.69;4918243;29;20066;-84
2021/11/03 09:20:19;;;;;;;30.33;17.50;;;;;;;5.95;nan;99752.44;4901007;29;20046;-83
2021/11/03 09:22:46;;;;;;;21.03;13.67;;;;;;;5.98;nan;99748.94;4911297;29;20407;-82
2021/11/03 09:25:16;;;;;;;22.77;14.10;;;;;;;6.08;nan;99740.88;4920015;29;20047;-83
2021/11/03 09:27:44;;;;;;;26.53;15.70;;;;;;;6.16;nan;99741.59;4921015;29;20054;-83
2021/11/03 09:30:11;;;;;;;25.47;14.27;;;;;;;6.22;nan;99738.00;4919702;29;20045;-82
2021/11/03 09:32:41;;;;;;;24.77;13.90;;;;;;;6.19;nan;99738.06;4917871;29;20036;-82
2021/11/03 09:35:10;;;;;;;22.73;13.73;;;;;;;6.19;nan;99728.44;4908773;28;20042;-83
2021/11/03 09:37:37;;;;;;;23.93;13.47;;;;;;;6.18;nan;99726.69;4947096;29;20035;-83
2021/11/03 09:40:07;;;;;;;20.07;13.20;;;;;;;6.16;nan;99728.50;4919903;29;20492;-83
2021/11/03 09:42:34;;;;;;;23.33;13.47;;;;;;;6.21;nan;99728.41;4921883;29;20419;-86
2021/11/03 09:45:18;;;;;;;25.17;13.13;;;;;;;6.28;nan;99727.41;4935667;28;20134;-83
2021/11/03 09:48:04;;;;;;;22.83;14.17;;;;;;;6.36;nan;99724.66;4923643;28;20047;-83
2021/11/03 09:50:36;;;;;;;24.53;14.30;;;;;;;6.40;nan;99723.72;4926179;29;20039;-84
2021/11/03 09:53:18;;;;;;;23.40;13.30;;;;;;;6.53;nan;99732.19;4946252;29;20047;-84
2021/11/03 09:55:45;;;;;;;27.03;19.50;;;;;;;6.55;nan;99726.03;4937686;28;20407;-84
2021/11/03 09:58:23;;;;;;;26.73;16.43;;;;;;;6.53;nan;99727.81;4923854;29;20052;-82
2021/11/03 10:00:55;;;;;;;26.20;17.57;;;;;;;6.56;nan;99727.78;4934551;29;20050;-84
2021/11/03 10:03:22;;;;;;;25.20;14.77;;;;;;;6.60;nan;99729.44;4924639;28;20046;-84
2021/11/03 10:06:06;;;;;;;24.13;14.17;;;;;;;6.72;nan;99729.19;4938450;28;20065;-84
2021/11/03 10:08:40;;;;;;;30.97;22.23;;;;;;;6.86;nan;99718.41;4920526;28;20672;-84
2021/11/03 10:11:21;;;;;;;19.80;13.15;;;;;;;6.74;nan;99729.19;4938576;28;20032;-85
2021/11/03 10:13:56;;;;;;;20.95;12.32;;;;;;;6.74;nan;99722.16;4932613;28;20508;-84
2021/11/03 10:16:35;;;;;;;23.83;13.82;;;;;;;6.91;nan;99723.59;4941910;28;20512;-83
2021/11/03 10:19:20;;;;;;;23.87;14.10;;;;;;;6.99;nan;99726.91;4961954;28;20122;-84
2021/11/03 10:22:01;;;;;;;22.87;13.97;;;;;;;7.06;nan;99723.25;4931403;28;20041;-85
2021/11/03 10:24:37;;;;;;;24.65;15.13;;;;;;;7.21;nan;99722.06;4940362;28;20046;-84
2021/11/03 10:27:16;;;;;;;24.10;14.60;;;;;;;7.37;nan;99719.97;4932466;29;20057;-83
2021/11/03 10:29:51;;;;;;;23.13;15.18;;;;;;;7.55;nan;99716.91;4969198;28;20480;-84
2021/11/03 10:32:35;;;;;;;49.90;44.92;;;;;;;7.64;nan;99716.69;4936697;28;20087;-85
2021/11/03 10:35:38;;;;;;;26.33;16.80;;;;;;;7.52;nan;99715.22;4930045;29;20054;-84
2021/11/03 10:38:20;;;;;;;24.00;13.40;;;;;;;7.48;nan;99713.59;4923255;29;20038;-85
2021/11/03 10:40:50;;;;;;;24.10;15.10;;;;;;;7.44;nan;99717.16;4937994;29;20043;-84
2021/11/03 10:43:29;;;;;;;20.90;13.60;;;;;;;7.44;nan;99718.94;4952644;28;20443;-85
2021/11/03 10:45:59;;;;;;;24.55;14.57;;;;;;;7.52;nan;99719.63;4939224;29;20396;-85
2021/11/03 10:48:28;;;;;;;21.38;13.50;;;;;;;7.66;nan;99724.56;4905857;29;20057;-85
2021/11/03 10:50:55;;;;;;;19.77;12.02;;;;;;;7.67;nan;99727.16;4922783;29;20031;-83
2021/11/03 10:53:27;;;;;;;21.70;12.90;;;;;;;7.68;nan;99728.00;4937139;28;20050;-83
2021/11/03 10:56:06;;;;;;;18.65;12.27;;;;;;;7.66;nan;99722.81;4922719;29;20491;-84
2021/11/03 10:58:49;;;;;;;20.63;12.75;;;;;;;7.45;nan;99712.78;4921547;29;20043;-85
2021/11/03 11:01:22;;;;;;;21.00;12.85;;;;;;;7.48;nan;99717.94;4947998;29;20036;-84
2021/11/03 11:04:09;;;;;;;21.95;13.23;;;;;;;7.43;nan;99718.06;4935617;29;20043;-85
2021/11/03 11:06:42;;;;;;;22.08;13.95;;;;;;;7.11;nan;99718.78;4909956;29;20053;-83
2021/11/03 11:09:08;;;;;;;18.27;11.68;;;;;;;7.19;nan;99714.22;4918165;29;20670;-83
2021/11/03 11:11:38;;;;;;;20.90;13.43;;;;;;;7.19;nan;99714.22;4935344;29;20050;-83
2021/11/03 11:14:17;;;;;;;23.10;14.90;;;;;;;7.25;nan;99708.84;4918124;28;20452;-84
2021/11/03 11:16:49;;;;;;;19.63;12.95;;;;;;;7.08;nan;99720.59;4921137;29;20511;-82
2021/11/03 11:19:39;;;;;;;24.02;14.07;;;;;;;7.27;nan;99728.06;4918454;29;20043;-83
2021/11/03 11:22:27;;;;;;;22.85;13.35;;;;;;;7.30;nan;99725.34;4919746;28;20048;-83
2021/11/03 11:25:01;;;;;;;22.27;12.18;;;;;;;7.30;nan;99727.09;4918162;29;20045;-82
2021/11/03 11:27:31;;;;;;;19.98;12.80;;;;;;;7.39;nan;99731.28;4904689;29;20047;-82
2021/11/03 11:30:22;;;;;;;21.02;12.60;;;;;;;7.60;nan;99742.19;4915444;29;20050;-84
2021/11/03 11:33:04;;;;;;;25.20;14.68;;;;;;;7.63;nan;99750.00;4885482;29;20040;-83
2021/11/03 11:35:59;;;;;;;22.40;12.82;;;;;;;7.54;nan;99757.22;4914761;29;20043;-84
2021/11/03 11:38:47;;;;;;;25.02;13.50;;;;;;;7.29;nan;99759.53;4933494;29;20074;-85
2021/11/03 11:41:20;;;;;;;20.23;11.70;;;;;;;7.36;nan;99750.63;4937937;29;20044;-82
2021/11/03 11:44:16;;;;;;;19.52;12.35;;;;;;;7.33;nan;99751.56;4934945;29;20035;-82
2021/11/03 11:46:44;;;;;;;22.38;14.35;;;;;;;7.39;nan;99744.44;4925812;29;20106;-83
2021/11/03 11:49:19;;;;;;;23.45;13.68;;;;;;;7.32;nan;99747.22;5016364;23;20114;-80
2021/11/03 11:52:03;;;;;;;23.65;13.25;;;;;;;7.35;nan;99735.75;4950530;28;20126;-80
2021/11/03 11:54:39;;;;;;;23.42;13.43;;;;;;;7.50;nan;99730.16;4920576;28;20107;-80
2021/11/03 11:57:13;;;;;;;19.92;12.50;;;;;;;7.49;nan;99733.69;4935510;29;20075;-79
2021/11/03 12:00:02;;;;;;;;;;;;;;;7.39;nan;99724.28;4965773;29;20131;-79
2021/11/03 12:02:52;;;;;;;18.60;10.82;;;;;;;7.36;nan;99716.47;4944024;29;20016;-79
2021/11/03 12:05:45;;;;;;;19.83;11.77;;;;;;;7.38;nan;99719.91;4941144;29;20122;-80